KEND

Vance AFB Airport

Enid, Oklahoma, USA
METAR KEND 191156Z AUTO 14005KT 6SM -RA BR CLR 04/04 A2978 RMK AO2 VIS 1 1/4 RWY17R DZB40E46RAB46 SLP089 P0000 60000 T00440044 10057 20036 57020 VISNO RWY35C $
Observed Flight Rules
Dec-19 @ 11:56 UTC (30 minutes ago) Visual Flight Rules
Wind Visibility Clouds Conditions
140° at 5 knots 6 miles
  • Clear skies
  • Light Rain
  • Mist
Temperatures Readings Precipitation
Current 4°C / 39°F
Dewpoint 4°C / 39°F
Humidity 100%
Altimeter 29.78" Hg
Pressure 1008.9 hPa
Elevation 398
Current Rain 0.005
METAR KEND 191156Z AUTO 14005KT 6SM -RA BR CLR 04/04 A2978 RMK AO2 VIS 1 1/4 RWY17R DZB40E46RAB46 SLP089 P0000 60000 T00440044 10057 20036 57020 VISNO RWY35C $
Observed Flight Rules
Dec-19 @ 11:56 UTC
(30 minutes ago)
VFR
Wind Visibility
140° at 5 knots 6 miles
Clouds
  • Clear skies
Conditions
  • Light Rain
  • Mist
Temperature Dewpoint
4°C / 39°F 4°C / 39°F
Humidity Altimeter Pressure
100% 29.78" Hg 1008.9 hPa
Current Rain
0.005